createdAt,value
2022-08-29T00:01:05.642Z,98721.34
2022-08-29T00:06:11.433Z,98719.16
2022-08-29T00:11:18.990Z,98719.53
2022-08-29T00:16:23.950Z,98720.88
2022-08-29T00:21:28.708Z,98715.34
2022-08-29T00:26:35.895Z,98719.59
2022-08-29T00:31:40.507Z,98727.78
2022-08-29T00:36:49.124Z,98728.84
2022-08-29T00:41:56.557Z,98729.94
2022-08-29T00:47:08.212Z,98737.03
2022-08-29T00:52:16.758Z,98732.50
2022-08-29T00:57:26.350Z,98732.34
2022-08-29T01:02:31.178Z,98731.38
2022-08-29T01:07:35.959Z,98744.59
2022-08-29T01:12:45.362Z,98741.56
2022-08-29T01:17:50.160Z,98734.47
2022-08-29T01:23:05.064Z,98735.66
2022-08-29T01:28:17.355Z,98740.91
2022-08-29T01:33:21.857Z,98746.31
2022-08-29T01:38:30.322Z,98746.00
2022-08-29T01:43:42.731Z,98749.19
2022-08-29T01:48:48.578Z,98752.06
2022-08-29T01:53:54.169Z,98752.91
2022-08-29T01:59:03.109Z,98749.41
2022-08-29T02:04:09.203Z,98761.56
2022-08-29T02:09:13.818Z,98757.81
2022-08-29T02:14:21.142Z,98753.09
2022-08-29T02:19:25.775Z,98755.78
2022-08-29T02:24:30.437Z,98759.50
2022-08-29T02:29:38.392Z,98755.94
2022-08-29T02:34:44.830Z,98763.88
2022-08-29T02:39:52.512Z,98759.28
2022-08-29T02:44:59.727Z,98768.22
2022-08-29T02:50:06.603Z,98774.25
2022-08-29T02:55:15.358Z,98781.66
2022-08-29T03:00:25.498Z,98787.03
2022-08-29T03:05:34.983Z,98784.63
2022-08-29T03:10:40.923Z,98786.91
2022-08-29T03:15:48.085Z,98775.75
2022-08-29T03:20:53.465Z,98782.78
2022-08-29T03:25:58.322Z,98778.06
2022-08-29T03:31:05.564Z,98783.06
2022-08-29T03:36:14.123Z,98784.41
2022-08-29T03:41:23.378Z,98786.72
2022-08-29T03:46:31.068Z,98787.38
2022-08-29T03:51:36.174Z,98783.59
2022-08-29T03:56:41.203Z,98785.78
2022-08-29T04:01:50.340Z,98789.66
2022-08-29T04:06:54.858Z,98795.50
2022-08-29T04:11:59.467Z,98801.38
2022-08-29T04:17:07.371Z,98815.34
2022-08-29T04:22:13.826Z,98823.34
2022-08-29T04:27:18.337Z,98814.88
2022-08-29T04:32:25.820Z,98821.28
2022-08-29T04:37:31.310Z,98821.59
2022-08-29T04:42:38.691Z,98826.97
2022-08-29T04:47:46.848Z,98837.94
2022-08-29T04:52:52.430Z,98829.84
2022-08-29T04:57:58.339Z,98843.47
2022-08-29T05:03:07.977Z,98831.84
2022-08-29T05:08:12.653Z,98848.00
2022-08-29T05:13:17.391Z,98849.72
2022-08-29T05:18:24.468Z,98842.31
2022-08-29T05:23:28.934Z,98848.38
2022-08-29T05:28:35.696Z,98856.88
2022-08-29T05:33:43.226Z,98858.97
2022-08-29T05:38:47.795Z,98862.91
2022-08-29T05:43:54.380Z,98873.88
2022-08-29T05:49:01.441Z,98874.97
2022-08-29T05:54:06.221Z,98891.38
2022-08-29T05:59:12.631Z,98885.88
2022-08-29T06:04:19.852Z,98890.38
2022-08-29T06:09:24.492Z,98880.44
2022-08-29T06:14:29.538Z,98877.34
2022-08-29T06:19:37.405Z,98883.22
2022-08-29T06:24:44.453Z,98889.03
2022-08-29T06:29:49.335Z,98883.00
2022-08-29T06:34:56.543Z,98880.72
2022-08-29T06:40:01.098Z,98887.03
2022-08-29T06:45:05.950Z,98892.50
2022-08-29T06:50:13.226Z,98889.69
2022-08-29T06:55:17.727Z,98884.31
2022-08-29T07:00:28.836Z,98873.50
2022-08-29T07:05:36.136Z,98862.75
2022-08-29T07:10:40.690Z,98871.53
2022-08-29T07:15:45.315Z,98867.44
2022-08-29T07:20:54.587Z,98860.81
2022-08-29T07:26:09.530Z,98855.34
2022-08-29T07:31:14.098Z,98849.88
2022-08-29T07:36:21.429Z,98845.09
2022-08-29T07:41:26.623Z,98853.19
2022-08-29T07:46:31.719Z,98863.63
2022-08-29T07:51:38.966Z,98864.38
2022-08-29T07:56:51.481Z,98855.47
2022-08-29T08:01:56.021Z,98849.75
2022-08-29T08:07:03.144Z,98858.97
2022-08-29T08:12:09.786Z,98854.44
2022-08-29T08:17:14.324Z,98855.41
2022-08-29T08:22:21.601Z,98863.91
2022-08-29T08:27:26.108Z,98860.28
2022-08-29T08:32:32.556Z,98870.50
2022-08-29T08:37:40.271Z,98863.00
2022-08-29T08:42:47.297Z,98864.66
2022-08-29T08:47:54.544Z,98864.25
2022-08-29T08:53:08.683Z,98852.41
2022-08-29T08:58:27.168Z,98852.41
2022-08-29T09:04:13.623Z,98851.50
2022-08-29T09:09:32.978Z,98844.66
2022-08-29T09:14:50.870Z,98840.56
2022-08-29T09:19:55.830Z,98828.53
2022-08-29T09:25:05.355Z,98836.81
2022-08-29T09:30:14.095Z,98838.84
2022-08-29T09:35:24.547Z,98842.88
2022-08-29T09:40:49.082Z,98847.56
2022-08-29T09:46:19.239Z,98851.66
2022-08-29T09:51:28.503Z,98859.66
2022-08-29T09:56:38.113Z,98850.09
2022-08-29T10:01:43.045Z,98843.56
2022-08-29T10:06:52.572Z,98850.94
2022-08-29T10:12:03.667Z,98842.56
2022-08-29T10:17:26.154Z,98835.50
2022-08-29T10:22:38.844Z,98838.25
2022-08-29T10:27:51.752Z,98835.97
2022-08-29T10:33:11.356Z,98838.72
2022-08-29T10:38:25.165Z,98838.31
2022-08-29T10:43:47.135Z,98838.31
2022-08-29T10:49:00.642Z,98836.19
2022-08-29T10:54:14.574Z,98833.72
2022-08-29T10:59:31.735Z,98822.75
2022-08-29T11:04:40.807Z,98817.22
2022-08-29T11:09:50.501Z,98824.38
2022-08-29T11:15:03.302Z,98814.06
2022-08-29T11:20:12.363Z,98820.16
2022-08-29T11:25:18.474Z,98811.06
2022-08-29T11:30:35.221Z,98808.94
2022-08-29T11:35:55.467Z,98813.94
2022-08-29T11:41:31.796Z,98813.06
2022-08-29T11:46:43.612Z,98813.78
2022-08-29T11:51:52.025Z,98813.25
2022-08-29T11:57:34.253Z,98809.75
2022-08-29T12:02:48.817Z,98814.47
2022-08-29T12:08:02.850Z,98808.56
2022-08-29T12:13:10.929Z,98808.41
2022-08-29T12:18:52.291Z,98802.38
2022-08-29T12:23:56.733Z,98793.59
2022-08-29T12:29:10.157Z,98792.28
2022-08-29T12:34:35.336Z,98786.97
2022-08-29T12:39:57.247Z,98782.97
2022-08-29T12:45:03.866Z,98782.91
2022-08-29T12:50:20.681Z,98789.09
2022-08-29T12:55:28.999Z,98788.66
2022-08-29T13:00:35.787Z,98778.06
2022-08-29T13:05:43.878Z,98766.38
2022-08-29T13:10:57.452Z,98765.03
2022-08-29T13:16:05.057Z,98766.88
2022-08-29T13:21:16.390Z,98759.22
2022-08-29T13:26:24.648Z,98755.06
2022-08-29T13:31:32.483Z,98756.13
2022-08-29T13:36:47.290Z,98745.59
2022-08-29T13:42:13.304Z,98733.09
2022-08-29T13:47:20.751Z,98734.75
2022-08-29T13:52:31.696Z,98730.81
2022-08-29T13:57:37.094Z,98730.91
2022-08-29T14:02:45.163Z,98729.44
2022-08-29T14:07:52.611Z,98729.22
2022-08-29T14:12:57.272Z,98717.59
2022-08-29T14:18:02.956Z,98719.88
2022-08-29T14:23:15.178Z,98702.84
2022-08-29T14:28:20.333Z,98691.53
2022-08-29T14:33:25.691Z,98692.41
2022-08-29T14:38:33.151Z,98695.94
2022-08-29T14:43:39.893Z,98699.34
2022-08-29T14:48:45.128Z,98690.63
2022-08-29T14:53:54.978Z,98683.50
2022-08-29T14:58:59.835Z,98694.38
2022-08-29T15:04:04.856Z,98696.41
2022-08-29T15:09:12.016Z,98690.84
2022-08-29T15:14:16.598Z,98686.59
2022-08-29T15:24:50.266Z,98685.22
2022-08-29T15:29:55.055Z,98683.03
2022-08-29T15:34:59.982Z,98682.94
2022-08-29T15:40:12.424Z,98678.66
2022-08-29T15:45:18.072Z,98676.47
2022-08-29T15:50:27.723Z,98664.97
2022-08-29T15:55:35.017Z,98664.81
2022-08-29T16:00:40.651Z,98662.63
2022-08-29T16:05:45.336Z,98658.69
2022-08-29T16:10:53.768Z,98652.13
2022-08-29T16:15:58.745Z,98660.59
2022-08-29T16:21:03.598Z,98657.13
2022-08-29T16:26:11.457Z,98654.88
2022-08-29T16:31:16.433Z,98644.66
2022-08-29T16:36:21.106Z,98645.50
2022-08-29T16:41:29.493Z,98648.47
2022-08-29T16:46:35.160Z,98643.75
2022-08-29T16:51:39.876Z,98643.84
2022-08-29T16:56:47.361Z,98649.59
2022-08-29T17:01:54.690Z,98629.81
2022-08-29T17:07:01.306Z,98628.59
2022-08-29T17:12:07.019Z,98642.63
2022-08-29T17:17:11.814Z,98635.19
2022-08-29T17:22:18.470Z,98641.28
2022-08-29T17:27:29.987Z,98648.25
2022-08-29T17:32:34.832Z,98643.22
2022-08-29T17:37:39.827Z,98636.53
2022-08-29T17:42:48.009Z,98650.06
2022-08-29T17:47:52.543Z,98647.34
2022-08-29T17:52:57.307Z,98644.03
2022-08-29T17:58:06.004Z,98650.88
2022-08-29T18:03:13.957Z,98643.44
2022-08-29T18:08:19.272Z,98648.34
2022-08-29T18:13:27.671Z,98651.34
2022-08-29T18:18:34.581Z,98660.75
2022-08-29T18:23:40.078Z,98667.16
2022-08-29T18:28:48.085Z,98666.34
2022-08-29T18:34:00.610Z,98677.31
2022-08-29T18:39:19.111Z,98674.88
2022-08-29T18:44:27.220Z,98676.69
2022-08-29T18:49:44.336Z,98673.84
2022-08-29T18:54:49.037Z,98688.88
2022-08-29T18:59:56.774Z,98693.63
2022-08-29T19:05:01.387Z,98697.66
2022-08-29T19:10:07.134Z,98699.38
2022-08-29T19:15:15.746Z,98705.47
2022-08-29T19:20:36.418Z,98701.91
2022-08-29T19:25:42.099Z,98712.44
2022-08-29T19:30:50.772Z,98720.81
2022-08-29T19:35:56.378Z,98715.09
2022-08-29T19:41:04.381Z,98708.16
2022-08-29T19:46:16.713Z,98720.28
2022-08-29T19:51:29.812Z,98724.09
2022-08-29T19:56:35.568Z,98732.44
2022-08-29T20:01:45.738Z,98724.03
2022-08-29T20:06:50.610Z,98732.53
2022-08-29T20:11:55.857Z,98740.69
2022-08-29T20:17:07.923Z,98735.16
2022-08-29T20:22:14.336Z,98731.75
2022-08-29T20:27:21.849Z,98737.19
2022-08-29T20:32:29.182Z,98733.75
2022-08-29T20:37:33.839Z,98751.31
2022-08-29T20:42:38.473Z,98751.06
2022-08-29T20:47:45.642Z,98749.13
2022-08-29T20:52:51.359Z,98754.53
2022-08-29T20:57:55.924Z,98769.13
2022-08-29T21:03:15.794Z,98769.91
2022-08-29T21:08:23.638Z,98762.34
2022-08-29T21:13:29.397Z,98761.44
2022-08-29T21:18:36.493Z,98763.06
2022-08-29T21:23:41.237Z,98759.63
2022-08-29T21:28:47.189Z,98757.88
2022-08-29T21:33:55.102Z,98762.06
2022-08-29T21:39:03.408Z,98760.25
2022-08-29T21:44:08.560Z,98756.44
2022-08-29T21:49:18.451Z,98758.06
2022-08-29T21:54:23.058Z,98761.53
2022-08-29T21:59:28.479Z,98762.56
2022-08-29T22:04:35.702Z,98754.34
2022-08-29T22:09:40.466Z,98756.59
2022-08-29T22:15:03.766Z,98763.84
2022-08-29T22:20:11.826Z,98768.63
2022-08-29T22:25:16.930Z,98768.19
2022-08-29T22:30:22.692Z,98763.13
2022-08-29T22:35:40.536Z,98761.84
2022-08-29T22:40:45.450Z,98756.75
2022-08-29T22:45:50.734Z,98755.91
2022-08-29T22:51:01.531Z,98763.44
2022-08-29T22:56:06.716Z,98768.38
2022-08-29T23:01:11.391Z,98755.19
2022-08-29T23:06:18.781Z,98766.16
2022-08-29T23:11:24.961Z,98767.94
2022-08-29T23:16:29.590Z,98761.19
2022-08-29T23:21:40.202Z,98760.94
2022-08-29T23:26:45.538Z,98760.47
2022-08-29T23:31:50.382Z,98759.63
2022-08-29T23:36:57.798Z,98757.09
2022-08-29T23:42:02.569Z,98764.50
2022-08-29T23:47:08.605Z,98760.53
2022-08-29T23:52:16.193Z,98764.72
2022-08-29T23:57:21.106Z,98758.72
